createdAt,value
2018-11-20T00:01:43.853Z,12.13
2018-11-20T00:04:31.640Z,11.77
2018-11-20T00:07:33.535Z,13.07
2018-11-20T00:10:26.531Z,11.03
2018-11-20T00:13:25.520Z,12.40
2018-11-20T00:16:22.119Z,13.27
2018-11-20T00:19:25.361Z,12.07
2018-11-20T00:22:17.213Z,13.30
2018-11-20T00:25:05.657Z,14.47
2018-11-20T00:27:54.401Z,14.67
2018-11-20T00:30:54.824Z,15.13
2018-11-20T00:33:52.581Z,14.10
2018-11-20T00:36:43.265Z,20.13
2018-11-20T00:39:35.412Z,17.97
2018-11-20T00:42:17.210Z,15.90
2018-11-20T00:45:10.485Z,15.70
2018-11-20T00:47:59.045Z,17.43
2018-11-20T00:50:49.401Z,15.80
2018-11-20T00:53:45.817Z,18.27
2018-11-20T00:56:52.779Z,17.77
2018-11-20T00:59:39.254Z,19.63
2018-11-20T01:02:32.634Z,18.60
2018-11-20T01:05:21.408Z,18.97
2018-11-20T01:08:16.477Z,20.17
2018-11-20T01:11:07.683Z,20.20
2018-11-20T01:14:06.048Z,22.23
2018-11-20T01:17:00.570Z,18.57
2018-11-20T01:19:57.642Z,21.37
2018-11-20T01:22:51.452Z,18.93
2018-11-20T01:25:41.316Z,21.53
2018-11-20T01:28:19.455Z,21.77
2018-11-20T01:31:13.752Z,20.07
2018-11-20T01:34:01.589Z,20.07
2018-11-20T01:36:58.399Z,20.73
2018-11-20T01:39:43.801Z,23.67
2018-11-20T01:42:42.470Z,20.97
2018-11-20T01:45:32.094Z,22.90
2018-11-20T01:48:26.628Z,21.77
2018-11-20T01:51:11.368Z,23.37
2018-11-20T01:54:07.340Z,22.50
2018-11-20T01:56:48.967Z,25.40
2018-11-20T01:59:42.819Z,24.33
2018-11-20T02:02:31.301Z,25.13
2018-11-20T02:05:25.935Z,24.17
2018-11-20T02:08:20.364Z,27.07
2018-11-20T02:11:16.539Z,24.50
2018-11-20T02:14:15.900Z,27.17
2018-11-20T02:17:13.309Z,25.33
2018-11-20T02:19:55.365Z,26.67
2018-11-20T02:22:46.759Z,25.03
2018-11-20T02:25:36.409Z,27.27
2018-11-20T02:28:38.028Z,26.17
2018-11-20T02:31:28.723Z,24.57
2018-11-20T02:34:14.539Z,25.53
2018-11-20T02:37:10.076Z,25.67
2018-11-20T02:40:04.985Z,23.97
2018-11-20T02:42:53.790Z,25.83
2018-11-20T02:45:45.679Z,26.43
2018-11-20T02:48:36.340Z,27.80
2018-11-20T02:51:28.692Z,25.37
2018-11-20T02:54:16.254Z,29.67
2018-11-20T02:57:15.569Z,23.93
2018-11-20T03:00:16.916Z,26.47
2018-11-20T03:03:11.655Z,27.63
2018-11-20T03:05:53.542Z,25.30
2018-11-20T03:08:56.154Z,25.03
2018-11-20T03:11:41.960Z,23.87
2018-11-20T03:14:43.547Z,23.17
2018-11-20T03:17:45.492Z,24.00
2018-11-20T03:20:39.284Z,25.20
2018-11-20T03:23:32.168Z,23.00
2018-11-20T03:26:18.608Z,25.47
2018-11-20T03:29:38.095Z,23.83
2018-11-20T03:32:34.324Z,24.07
2018-11-20T03:35:20.899Z,23.67
2018-11-20T03:38:28.998Z,25.07
2018-11-20T03:41:07.818Z,23.13
2018-11-20T03:43:49.076Z,23.13
2018-11-20T03:46:36.378Z,25.03
2018-11-20T03:49:28.214Z,25.17
2018-11-20T03:52:18.524Z,24.00
2018-11-20T03:55:07.231Z,24.73
2018-11-20T03:57:57.393Z,23.27
2018-11-20T04:00:59.569Z,23.07
2018-11-20T04:03:51.966Z,24.67
2018-11-20T04:06:42.497Z,25.63
2018-11-20T04:09:40.159Z,24.10
2018-11-20T04:12:36.403Z,25.63
2018-11-20T04:15:25.058Z,24.90
2018-11-20T04:18:27.587Z,23.20
2018-11-20T04:21:20.538Z,24.67
2018-11-20T04:24:17.252Z,27.07
2018-11-20T04:27:08.777Z,25.37
2018-11-20T04:30:02.217Z,23.90
2018-11-20T04:32:43.309Z,25.83
2018-11-20T04:35:41.492Z,24.47
2018-11-20T04:38:25.412Z,25.30
2018-11-20T04:41:19.242Z,24.83
2018-11-20T04:44:10.469Z,27.03
2018-11-20T04:47:01.218Z,24.67
2018-11-20T04:49:46.236Z,27.33
2018-11-20T04:52:41.131Z,28.03
2018-11-20T04:55:29.413Z,26.37
2018-11-20T04:58:15.471Z,26.90
2018-11-20T05:01:08.242Z,23.27
2018-11-20T05:03:57.034Z,26.20
2018-11-20T05:06:42.712Z,24.37
2018-11-20T05:09:32.586Z,24.53
2018-11-20T05:12:34.012Z,25.27
2018-11-20T05:15:23.557Z,25.10
2018-11-20T05:18:15.928Z,23.53
2018-11-20T05:21:05.483Z,23.97
2018-11-20T05:23:57.233Z,22.40
2018-11-20T05:27:00.130Z,25.37
2018-11-20T05:29:50.178Z,24.47
2018-11-20T05:32:39.702Z,25.97
2018-11-20T05:35:23.813Z,26.60
2018-11-20T05:38:15.467Z,24.27
2018-11-20T05:41:07.213Z,26.00
2018-11-20T05:44:02.461Z,25.17
2018-11-20T05:46:53.564Z,27.07
2018-11-20T05:49:54.358Z,23.50
2018-11-20T05:52:46.900Z,26.37
2018-11-20T05:55:52.847Z,26.10
2018-11-20T05:58:44.636Z,26.20
2018-11-20T06:01:31.511Z,27.80
2018-11-20T06:04:30.547Z,27.57
2018-11-20T06:07:27.360Z,24.63
2018-11-20T06:10:23.393Z,26.90
2018-11-20T06:13:19.293Z,24.10
2018-11-20T06:16:09.655Z,26.57
2018-11-20T06:18:59.534Z,30.17
2018-11-20T06:21:50.525Z,26.10
2018-11-20T06:24:41.128Z,28.63
2018-11-20T06:27:29.390Z,31.07
2018-11-20T06:30:32.543Z,26.57
2018-11-20T06:33:33.256Z,26.00
2018-11-20T06:36:25.033Z,28.03
2018-11-20T06:39:27.891Z,26.80
2018-11-20T06:42:10.333Z,25.20
2018-11-20T06:45:10.703Z,28.53
2018-11-20T06:47:59.891Z,28.47
2018-11-20T06:50:58.129Z,27.60
2018-11-20T06:53:49.643Z,30.50
2018-11-20T06:56:45.674Z,26.13
2018-11-20T06:59:30.599Z,28.90
2018-11-20T07:02:21.147Z,26.70
2018-11-20T07:05:09.455Z,26.93
2018-11-20T07:07:54.218Z,28.80
2018-11-20T07:10:42.111Z,27.60
2018-11-20T07:13:52.906Z,28.03
2018-11-20T07:17:08.364Z,30.13
2018-11-20T07:20:12.798Z,30.50
2018-11-20T07:22:56.569Z,34.93
2018-11-20T07:26:04.703Z,29.77
2018-11-20T07:28:59.031Z,28.17
2018-11-20T07:31:57.848Z,29.60
2018-11-20T07:34:56.880Z,31.13
2018-11-20T07:38:00.910Z,29.13
2018-11-20T07:40:44.875Z,31.77
2018-11-20T07:43:34.191Z,32.37
2018-11-20T07:46:26.077Z,28.80
2018-11-20T07:49:16.179Z,28.13
2018-11-20T07:52:10.077Z,29.77
2018-11-20T07:55:14.373Z,31.47
2018-11-20T07:58:03.609Z,31.00
2018-11-20T08:00:57.765Z,33.13
2018-11-20T08:03:41.828Z,29.10
2018-11-20T08:06:33.816Z,29.90
2018-11-20T08:09:27.173Z,31.70
2018-11-20T08:12:19.717Z,34.33
2018-11-20T08:15:07.773Z,31.87
2018-11-20T08:17:52.269Z,31.80
2018-11-20T08:20:38.142Z,30.80
2018-11-20T08:23:34.846Z,32.90
2018-11-20T08:26:14.774Z,30.53
2018-11-20T08:29:05.517Z,33.47
2018-11-20T08:31:56.766Z,34.83
2018-11-20T08:35:00.798Z,31.63
2018-11-20T08:37:50.508Z,37.37
2018-11-20T08:40:40.752Z,32.03
2018-11-20T08:43:35.426Z,34.87
2018-11-20T08:46:22.400Z,35.87
2018-11-20T08:49:13.279Z,32.30
2018-11-20T08:52:02.041Z,34.13
2018-11-20T08:54:51.274Z,31.50
2018-11-20T08:58:03.779Z,31.30
2018-11-20T09:00:57.208Z,31.40
2018-11-20T09:03:51.153Z,33.03
2018-11-20T09:06:39.851Z,33.50
2018-11-20T09:09:32.341Z,31.37
2018-11-20T09:12:19.543Z,34.23
2018-11-20T09:15:28.805Z,34.97
2018-11-20T09:18:29.834Z,32.47
2018-11-20T09:21:23.197Z,33.60
2018-11-20T09:24:11.124Z,32.73
2018-11-20T09:26:59.356Z,32.97
2018-11-20T09:29:55.678Z,33.97
2018-11-20T09:32:45.283Z,33.57
2018-11-20T09:35:43.463Z,35.97
2018-11-20T09:38:34.269Z,35.60
2018-11-20T09:41:25.773Z,33.40
2018-11-20T09:44:15.528Z,33.10
2018-11-20T09:47:08.182Z,33.40
2018-11-20T09:50:15.575Z,30.57
2018-11-20T09:53:20.407Z,33.63
2018-11-20T09:56:07.375Z,34.17
2018-11-20T09:59:03.707Z,32.87
2018-11-20T10:02:01.519Z,32.70
2018-11-20T10:04:49.408Z,31.40
2018-11-20T10:07:49.091Z,32.47
2018-11-20T10:10:41.383Z,30.77
2018-11-20T10:13:29.225Z,35.23
2018-11-20T10:16:26.589Z,34.63
2018-11-20T10:19:23.705Z,33.10
2018-11-20T10:22:23.364Z,34.97
2018-11-20T10:25:12.097Z,34.10
2018-11-20T10:28:03.856Z,32.53
2018-11-20T10:30:50.976Z,31.03
2018-11-20T10:33:44.622Z,38.00
2018-11-20T10:36:33.566Z,34.77
2018-11-20T10:39:24.520Z,33.87
2018-11-20T10:42:30.725Z,33.27
2018-11-20T10:45:41.700Z,32.40
2018-11-20T10:48:44.985Z,33.27
2018-11-20T10:51:22.617Z,32.87
2018-11-20T10:54:13.591Z,32.80
2018-11-20T10:57:04.580Z,29.40
2018-11-20T11:00:12.573Z,35.00
2018-11-20T11:03:03.179Z,35.27
2018-11-20T11:05:56.777Z,31.07
2018-11-20T11:08:49.619Z,34.07
2018-11-20T11:11:59.543Z,31.77
2018-11-20T11:14:49.708Z,35.17
2018-11-20T11:17:44.443Z,33.53
2018-11-20T11:20:34.591Z,32.37
2018-11-20T11:23:24.922Z,31.10
2018-11-20T11:26:34.057Z,32.93
2018-11-20T11:29:21.889Z,31.30
2018-11-20T11:32:19.576Z,30.93
2018-11-20T11:35:29.113Z,33.03
2018-11-20T11:38:17.308Z,38.17
2018-11-20T11:41:01.154Z,34.17
2018-11-20T11:43:54.233Z,30.67
2018-11-20T11:46:43.240Z,33.10
2018-11-20T11:49:34.657Z,30.80
2018-11-20T11:52:25.530Z,30.80
2018-11-20T11:55:15.671Z,29.73
2018-11-20T11:58:25.866Z,31.07
2018-11-20T12:01:22.109Z,34.57
2018-11-20T12:04:14.827Z,30.77
2018-11-20T12:07:07.819Z,34.57
2018-11-20T12:10:00.754Z,34.87
2018-11-20T12:12:51.410Z,34.30
2018-11-20T12:15:38.713Z,32.60
2018-11-20T12:18:27.147Z,35.50
2018-11-20T12:21:07.526Z,34.30
2018-11-20T12:24:05.163Z,30.13
2018-11-20T12:27:11.350Z,33.73
2018-11-20T12:30:15.640Z,35.57
2018-11-20T12:33:04.003Z,31.80
2018-11-20T12:36:05.620Z,32.13
2018-11-20T12:38:56.080Z,32.17
2018-11-20T12:41:34.917Z,38.53
2018-11-20T12:44:18.122Z,32.87
2018-11-20T12:47:14.988Z,32.97
2018-11-20T12:50:06.268Z,34.63
2018-11-20T12:53:07.619Z,32.17
2018-11-20T12:56:01.673Z,38.67
2018-11-20T12:58:51.584Z,34.73
2018-11-20T13:01:54.735Z,34.53
2018-11-20T13:04:58.089Z,34.67
2018-11-20T13:07:50.389Z,33.70
2018-11-20T13:10:39.555Z,38.17
2018-11-20T13:13:37.189Z,33.20
2018-11-20T13:16:44.709Z,34.83
2018-11-20T13:19:35.627Z,35.10
2018-11-20T13:22:44.713Z,36.87
2018-11-20T13:25:32.653Z,40.33
2018-11-20T13:28:21.781Z,37.83
2018-11-20T13:31:13.519Z,34.47
2018-11-20T13:34:20.856Z,37.40
2018-11-20T13:37:09.927Z,36.63
2018-11-20T13:40:04.814Z,37.47
2018-11-20T13:43:11.820Z,37.10
2018-11-20T13:46:19.328Z,38.37
2018-11-20T13:49:16.910Z,36.77
2018-11-20T13:52:11.941Z,37.37
2018-11-20T13:54:56.867Z,39.10
2018-11-20T13:57:43.893Z,38.27
2018-11-20T14:00:34.798Z,37.30
2018-11-20T14:03:23.563Z,38.27
2018-11-20T14:06:24.305Z,37.70
2018-11-20T14:09:21.605Z,37.30
2018-11-20T14:12:29.214Z,39.60
2018-11-20T14:15:19.054Z,38.37
2018-11-20T14:18:15.791Z,37.77
2018-11-20T14:21:06.258Z,38.07
2018-11-20T14:23:56.928Z,36.90
2018-11-20T14:26:48.584Z,43.27
2018-11-20T14:29:38.122Z,39.33
2018-11-20T14:32:29.299Z,40.87
2018-11-20T14:35:12.586Z,39.07
2018-11-20T14:38:05.150Z,40.30
2018-11-20T14:40:55.744Z,41.03
2018-11-20T14:44:02.163Z,40.73
2018-11-20T14:46:50.943Z,38.40
2018-11-20T14:49:51.356Z,40.83
2018-11-20T14:52:43.937Z,39.77
2018-11-20T14:55:38.214Z,40.23
2018-11-20T14:58:29.688Z,38.47
2018-11-20T15:01:28.297Z,38.60
2018-11-20T15:04:19.799Z,38.70
2018-11-20T15:07:00.049Z,34.60
2018-11-20T15:10:01.874Z,40.67
2018-11-20T15:12:50.611Z,36.63
2018-11-20T15:15:45.824Z,35.57
2018-11-20T15:18:47.104Z,37.63
2018-11-20T15:21:27.396Z,38.17
2018-11-20T15:24:21.876Z,37.20
2018-11-20T15:27:13.701Z,37.47
2018-11-20T15:29:53.855Z,33.50
2018-11-20T15:32:51.294Z,31.77
2018-11-20T15:35:40.769Z,33.27
2018-11-20T15:38:38.257Z,31.23
2018-11-20T15:41:29.215Z,29.80
2018-11-20T15:44:18.159Z,28.33
2018-11-20T15:47:04.654Z,28.17
2018-11-20T15:49:58.256Z,27.97
2018-11-20T15:52:49.628Z,29.33
2018-11-20T15:55:39.799Z,27.60
2018-11-20T15:58:33.782Z,30.27
2018-11-20T16:01:35.730Z,25.53
2018-11-20T16:04:16.635Z,25.03
2018-11-20T16:07:05.957Z,24.83
2018-11-20T16:09:53.551Z,27.10
2018-11-20T16:12:59.532Z,25.43
2018-11-20T16:15:59.016Z,24.50
2018-11-20T16:18:48.601Z,27.17
2018-11-20T16:21:33.417Z,25.80
2018-11-20T16:24:30.247Z,20.03
2018-11-20T16:27:13.012Z,21.20
2018-11-20T16:30:18.950Z,24.23
2018-11-20T16:33:09.187Z,23.97
2018-11-20T16:35:52.649Z,22.70
2018-11-20T16:38:41.741Z,21.03
2018-11-20T16:41:32.508Z,22.57
2018-11-20T16:44:33.116Z,21.17
2018-11-20T16:47:28.678Z,20.27
2018-11-20T16:50:29.628Z,19.73
2018-11-20T16:53:19.118Z,20.60
2018-11-20T16:56:03.969Z,21.40
2018-11-20T16:58:59.027Z,21.23
2018-11-20T17:01:48.168Z,22.03
2018-11-20T17:04:37.927Z,21.30
2018-11-20T17:07:30.633Z,22.67
2018-11-20T17:10:32.837Z,22.43
2018-11-20T17:13:34.809Z,25.57
2018-11-20T17:16:27.103Z,22.70
2018-11-20T17:19:18.943Z,21.57
2018-11-20T17:22:10.498Z,24.23
2018-11-20T17:25:00.182Z,20.40
2018-11-20T17:27:59.371Z,21.37
2018-11-20T17:30:58.451Z,26.23
2018-11-20T17:33:51.681Z,22.83
2018-11-20T17:36:43.001Z,25.97
2018-11-20T17:39:34.505Z,22.30
2018-11-20T17:42:23.726Z,23.07
2018-11-20T17:45:11.992Z,25.00
2018-11-20T17:48:10.525Z,23.37
2018-11-20T17:51:13.796Z,23.47
2018-11-20T17:54:08.007Z,22.47
2018-11-20T17:57:10.393Z,21.63
2018-11-20T18:00:08.512Z,23.90
2018-11-20T18:03:05.806Z,25.10
2018-11-20T18:05:52.077Z,20.97
2018-11-20T18:08:54.148Z,21.50
2018-11-20T18:11:42.623Z,22.37
2018-11-20T18:14:39.956Z,23.83
2018-11-20T18:17:48.922Z,22.50
2018-11-20T18:20:50.865Z,22.63
2018-11-20T18:23:42.704Z,22.83
2018-11-20T18:26:42.236Z,25.77
2018-11-20T18:29:42.936Z,24.67
2018-11-20T18:32:32.242Z,22.67
2018-11-20T18:35:21.778Z,23.10
2018-11-20T18:38:30.619Z,25.13
2018-11-20T18:41:21.548Z,20.23
2018-11-20T18:44:15.588Z,22.17
2018-11-20T18:47:02.132Z,22.97
2018-11-20T18:49:55.039Z,24.80
2018-11-20T18:53:04.734Z,22.03
2018-11-20T18:55:59.668Z,23.20
2018-11-20T18:58:48.782Z,22.67
2018-11-20T19:01:40.415Z,23.27
2018-11-20T19:04:34.303Z,23.77
2018-11-20T19:07:23.168Z,21.77
2018-11-20T19:10:20.533Z,21.30
2018-11-20T19:13:14.843Z,22.70
2018-11-20T19:16:04.095Z,20.90
2018-11-20T19:18:53.873Z,21.00
2018-11-20T19:21:38.928Z,20.60
2018-11-20T19:24:49.771Z,20.67
2018-11-20T19:27:42.956Z,21.63
2018-11-20T19:30:37.230Z,22.43
2018-11-20T19:33:35.653Z,20.53
2018-11-20T19:36:46.196Z,22.80
2018-11-20T19:39:38.833Z,21.83
2018-11-20T19:42:47.557Z,22.07
2018-11-20T19:46:00.172Z,22.13
2018-11-20T19:49:05.942Z,20.13
2018-11-20T19:52:14.847Z,18.80
2018-11-20T19:55:23.656Z,20.67
2018-11-20T19:58:42.617Z,20.27
2018-11-20T20:01:57.406Z,22.73
2018-11-20T20:05:08.468Z,22.03
2018-11-20T20:08:14.714Z,19.63
2018-11-20T20:11:23.138Z,21.90
2018-11-20T20:14:44.780Z,21.83
2018-11-20T20:18:02.485Z,20.47
2018-11-20T20:21:22.251Z,18.87
2018-11-20T20:24:40.624Z,21.73
2018-11-20T20:27:59.808Z,20.93
2018-11-20T20:31:19.868Z,20.77
2018-11-20T20:34:34.503Z,23.43
2018-11-20T20:37:57.081Z,20.37
2018-11-20T20:41:22.871Z,18.00
2018-11-20T20:44:43.637Z,20.73
2018-11-20T20:48:00.101Z,18.67
2018-11-20T20:51:04.589Z,19.67
2018-11-20T20:54:04.780Z,23.77
2018-11-20T20:57:21.594Z,22.07
2018-11-20T21:00:34.293Z,22.53
2018-11-20T21:03:43.470Z,21.30
2018-11-20T21:06:53.983Z,20.93
2018-11-20T21:09:59.875Z,22.63
2018-11-20T21:13:10.320Z,22.53
2018-11-20T21:16:22.447Z,20.27
2018-11-20T21:19:30.601Z,20.70
2018-11-20T21:22:37.976Z,20.60
2018-11-20T21:27:16.535Z,23.87
2018-11-20T21:30:35.568Z,20.90
2018-11-20T21:33:37.961Z,21.93
2018-11-20T21:36:32.974Z,26.63
2018-11-20T21:39:38.503Z,22.10
2018-11-20T21:42:45.968Z,27.07
2018-11-20T21:46:03.248Z,24.33
2018-11-20T21:49:10.493Z,22.37
2018-11-20T21:52:18.147Z,22.73
2018-11-20T21:55:29.213Z,23.83
2018-11-20T21:58:36.054Z,23.90
2018-11-20T22:01:56.292Z,24.80
2018-11-20T22:05:01.797Z,27.87
2018-11-20T22:08:25.127Z,24.23
2018-11-20T22:11:32.396Z,25.53
2018-11-20T22:14:40.357Z,23.83
2018-11-20T22:17:59.785Z,27.17
2018-11-20T22:21:08.424Z,24.03
2018-11-20T22:24:21.785Z,26.37
2018-11-20T22:27:43.113Z,24.77
2018-11-20T22:31:01.706Z,23.90
2018-11-20T22:34:12.279Z,25.13
2018-11-20T22:37:25.261Z,27.23
2018-11-20T22:40:33.267Z,24.43
2018-11-20T22:43:42.281Z,24.10
2018-11-20T22:46:51.551Z,23.90
2018-11-20T22:50:11.411Z,29.10
2018-11-20T22:53:28.217Z,26.37
2018-11-20T22:56:35.934Z,26.57
2018-11-20T22:59:33.712Z,27.73
2018-11-20T23:02:53.446Z,27.20
2018-11-20T23:05:57.799Z,31.70
2018-11-20T23:08:50.580Z,30.63
2018-11-20T23:11:41.633Z,30.23
2018-11-20T23:14:31.336Z,33.23
2018-11-20T23:17:26.395Z,34.00
2018-11-20T23:20:18.652Z,32.57
2018-11-20T23:23:13.680Z,33.77
2018-11-20T23:26:04.876Z,34.43
2018-11-20T23:28:54.297Z,34.47
2018-11-20T23:31:42.970Z,34.53
2018-11-20T23:34:35.574Z,36.03
2018-11-20T23:37:28.694Z,32.47
2018-11-20T23:40:18.388Z,36.97
2018-11-20T23:43:07.631Z,35.30
2018-11-20T23:46:01.334Z,36.30
2018-11-20T23:48:54.851Z,37.20
2018-11-20T23:51:48.061Z,39.70
2018-11-20T23:54:39.973Z,34.93
2018-11-20T23:57:31.699Z,38.20
